createdAt,value
2024-04-21T00:01:08.644Z,101614.94
2024-04-21T00:03:38.621Z,101613.88
2024-04-21T00:05:48.227Z,101611.98
2024-04-21T00:07:57.737Z,101611.29
2024-04-21T00:10:08.123Z,101613.98
2024-04-21T00:12:17.511Z,101615.13
2024-04-21T00:14:26.773Z,101617.80
2024-04-21T00:16:36.474Z,101625.22
2024-04-21T00:18:45.912Z,101636.54
2024-04-21T00:20:55.297Z,101640.66
2024-04-21T00:23:05.019Z,101642.30
2024-04-21T00:25:14.798Z,101642.64
2024-04-21T00:27:24.788Z,101643.02
2024-04-21T00:29:34.558Z,101647.63
2024-04-21T00:31:44.982Z,101648.74
2024-04-21T00:33:55.517Z,101648.20
2024-04-21T00:36:05.883Z,101652.57
2024-04-21T00:38:15.600Z,101654.30
2024-04-21T00:40:26.105Z,101657.98
2024-04-21T00:42:39.014Z,101658.05
2024-04-21T00:44:48.467Z,101663.82
2024-04-21T00:46:58.263Z,101663.20
2024-04-21T00:49:08.573Z,101663.38
2024-04-21T00:51:18.667Z,101669.77
2024-04-21T00:53:29.077Z,101676.92
2024-04-21T00:55:39.540Z,101679.02
2024-04-21T00:57:49.313Z,101677.67
2024-04-21T00:59:59.128Z,101683.18
2024-04-21T01:02:09.485Z,101688.71
2024-04-21T01:04:19.188Z,101695.06
2024-04-21T01:06:28.943Z,101694.01
2024-04-21T01:08:39.231Z,101705.55
2024-04-21T01:10:48.893Z,101709.11
2024-04-21T01:12:58.960Z,101705.04
2024-04-21T01:15:09.528Z,101715.69
2024-04-21T01:17:19.316Z,101720.61
2024-04-21T01:19:28.632Z,101729.96
2024-04-21T01:21:39.227Z,101734.91
2024-04-21T01:23:49.047Z,101748.01
2024-04-21T01:25:58.773Z,101749.50
2024-04-21T01:28:09.348Z,101751.09
2024-04-21T01:30:20.523Z,101747.80
2024-04-21T01:32:29.878Z,101754.93
2024-04-21T01:34:40.682Z,101754.61
2024-04-21T01:36:50.739Z,101756.04
2024-04-21T01:39:02.166Z,101756.44
2024-04-21T01:41:11.916Z,101755.03
2024-04-21T01:43:22.282Z,101756.70
2024-04-21T01:45:32.619Z,101759.98
2024-04-21T01:47:42.698Z,101765.48
2024-04-21T01:49:52.824Z,101762.93
2024-04-21T01:52:03.942Z,101761.29
2024-04-21T01:54:13.405Z,101761.70
2024-04-21T01:56:23.403Z,101773.13
2024-04-21T01:58:32.926Z,101778.38
2024-04-21T02:00:42.890Z,101780.46
2024-04-21T02:02:52.673Z,101784.07
2024-04-21T02:05:02.839Z,101788.86
2024-04-21T02:07:13.539Z,101791.91
2024-04-21T02:09:22.918Z,101794.06
2024-04-21T02:11:32.604Z,101799.16
2024-04-21T02:13:42.855Z,101799.30
2024-04-21T02:15:55.371Z,101808.00
2024-04-21T02:18:04.865Z,101808.33
2024-04-21T02:20:15.059Z,101810.63
2024-04-21T02:22:24.632Z,101810.02
2024-04-21T02:24:43.608Z,101815.26
2024-04-21T02:26:53.259Z,101818.92
2024-04-21T02:29:02.685Z,101821.48
2024-04-21T02:31:12.703Z,101821.33
2024-04-21T02:33:25.127Z,101823.76
2024-04-21T02:35:35.700Z,101829.29
2024-04-21T02:37:45.380Z,101833.65
2024-04-21T02:39:54.821Z,101838.70
2024-04-21T02:42:04.344Z,101841.05
2024-04-21T02:44:14.030Z,101844.90
2024-04-21T02:46:24.356Z,101849.65
2024-04-21T02:48:34.063Z,101849.64
2024-04-21T02:50:47.668Z,101852.23
2024-04-21T02:52:57.027Z,101856.39
2024-04-21T02:55:06.749Z,101862.08
2024-04-21T02:57:16.099Z,101866.20
2024-04-21T02:59:27.658Z,101870.60
2024-04-21T03:01:38.718Z,101871.11
2024-04-21T03:03:51.323Z,101876.30
2024-04-21T03:06:01.506Z,101881.12
2024-04-21T03:08:11.874Z,101881.89
2024-04-21T03:10:21.363Z,101887.19
2024-04-21T03:12:31.140Z,101896.36
2024-04-21T03:14:40.993Z,101903.89
2024-04-21T03:16:51.305Z,101903.98
2024-04-21T03:19:00.830Z,101910.70
2024-04-21T03:21:10.451Z,101912.19
2024-04-21T03:23:20.073Z,101924.41
2024-04-21T03:25:29.579Z,101922.70
2024-04-21T03:27:40.566Z,101931.20
2024-04-21T03:29:52.253Z,101939.05
2024-04-21T03:32:02.286Z,101940.12
2024-04-21T03:34:13.130Z,101943.86
2024-04-21T03:36:22.478Z,101949.06
2024-04-21T03:38:32.275Z,101957.20
2024-04-21T03:40:44.493Z,101961.99
2024-04-21T03:42:53.891Z,101965.80
2024-04-21T03:45:03.240Z,101972.75
2024-04-21T03:47:12.879Z,101975.06
2024-04-21T03:49:22.313Z,101980.35
2024-04-21T03:51:33.800Z,101981.37
2024-04-21T03:53:47.328Z,101984.09
2024-04-21T03:56:00.813Z,101983.94
2024-04-21T03:58:10.486Z,101981.58
2024-04-21T04:00:20.350Z,101987.48
2024-04-21T04:02:31.279Z,101987.08
2024-04-21T04:04:41.269Z,101989.52
2024-04-21T04:06:50.659Z,101992.58
2024-04-21T04:09:00.688Z,101995.52
2024-04-21T04:11:10.423Z,101996.25
2024-04-21T04:13:20.066Z,101997.16
2024-04-21T04:15:30.218Z,102003.70
2024-04-21T04:17:42.020Z,102006.62
2024-04-21T04:19:54.503Z,102010.69
2024-04-21T04:22:04.200Z,102017.36
2024-04-21T04:24:14.006Z,102023.65
2024-04-21T04:26:23.233Z,102027.55
2024-04-21T04:28:32.564Z,102039.70
2024-04-21T04:30:43.232Z,102043.69
2024-04-21T04:32:52.647Z,102045.33
2024-04-21T04:35:02.027Z,102051.06
2024-04-21T04:37:11.295Z,102053.98
2024-04-21T04:39:21.479Z,102057.21
2024-04-21T04:41:30.927Z,102060.16
2024-04-21T04:43:40.316Z,102064.92
2024-04-21T04:45:49.949Z,102066.44
2024-04-21T04:47:59.416Z,102075.36
2024-04-21T04:50:09.762Z,102077.75
2024-04-21T04:54:28.784Z,102089.25
2024-04-21T04:56:41.069Z,102091.15
2024-04-21T04:58:50.403Z,102094.82
2024-04-21T05:00:59.816Z,102101.11
2024-04-21T05:03:09.791Z,102102.23
2024-04-21T05:05:19.551Z,102103.27
2024-04-21T05:07:29.050Z,102107.82
2024-04-21T05:09:39.147Z,102109.16
2024-04-21T05:11:48.795Z,102112.62
2024-04-21T05:13:58.655Z,102117.23
2024-04-21T05:16:10.051Z,102119.76
2024-04-21T05:18:19.566Z,102122.07
2024-04-21T05:20:29.061Z,102128.09
2024-04-21T05:22:38.967Z,102128.11
2024-04-21T05:24:48.460Z,102131.59
2024-04-21T05:26:57.886Z,102135.15
2024-04-21T05:29:07.460Z,102138.73
2024-04-21T05:31:17.256Z,102138.73
2024-04-21T05:33:26.754Z,102143.19
2024-04-21T05:35:36.122Z,102143.67
2024-04-21T05:37:46.048Z,102147.01
2024-04-21T05:39:55.693Z,102147.42
2024-04-21T05:42:05.249Z,102148.69
2024-04-21T05:44:14.701Z,102150.73
2024-04-21T05:46:24.075Z,102156.80
2024-04-21T05:48:34.811Z,102155.79
2024-04-21T05:50:47.167Z,102156.71
2024-04-21T05:52:56.835Z,102157.54
2024-04-21T05:55:07.005Z,102161.02
2024-04-21T05:57:16.622Z,102161.96
2024-04-21T05:59:29.708Z,102164.35
2024-04-21T06:01:40.206Z,102166.39
2024-04-21T06:03:49.928Z,102167.86
2024-04-21T06:05:59.348Z,102168.70
2024-04-21T06:08:10.154Z,102172.39
2024-04-21T06:10:20.392Z,102176.19
2024-04-21T06:12:30.016Z,102176.58
2024-04-21T06:14:39.726Z,102179.52
2024-04-21T06:16:49.229Z,102184.90
2024-04-21T06:18:58.835Z,102186.55
2024-04-21T06:21:08.855Z,102185.52
2024-04-21T06:23:18.644Z,102182.85
2024-04-21T06:25:28.037Z,102186.80
2024-04-21T06:27:37.495Z,102187.39
2024-04-21T06:29:47.353Z,102185.48
2024-04-21T06:31:56.724Z,102186.39
2024-04-21T06:34:06.185Z,102190.58
2024-04-21T06:36:15.928Z,102189.58
2024-04-21T06:38:25.322Z,102193.33
2024-04-21T06:40:35.565Z,102197.30
2024-04-21T06:42:45.200Z,102199.61
2024-04-21T06:44:54.740Z,102200.57
2024-04-21T06:47:04.301Z,102202.98
2024-04-21T06:49:13.911Z,102204.92
2024-04-21T06:51:23.214Z,102200.65
2024-04-21T06:53:35.747Z,102207.69
2024-04-21T06:55:46.108Z,102204.40
2024-04-21T06:57:55.728Z,102209.25
2024-04-21T07:00:05.283Z,102209.73
2024-04-21T07:02:15.288Z,102214.01
2024-04-21T07:04:24.681Z,102217.39
2024-04-21T07:06:34.167Z,102220.82
2024-04-21T07:08:43.781Z,102224.16
2024-04-21T07:10:54.067Z,102225.48
2024-04-21T07:13:03.427Z,102227.89
2024-04-21T07:15:13.758Z,102228.77
2024-04-21T07:17:23.123Z,102232.63
2024-04-21T07:19:32.654Z,102228.64
2024-04-21T07:21:42.256Z,102230.56
2024-04-21T07:23:51.688Z,102229.75
2024-04-21T07:26:01.136Z,102234.73
2024-04-21T07:28:10.982Z,102237.42
2024-04-21T07:30:21.017Z,102243.72
2024-04-21T07:32:30.996Z,102243.27
2024-04-21T07:34:41.729Z,102241.54
2024-04-21T07:36:51.859Z,102240.43
2024-04-21T07:39:01.459Z,102243.02
2024-04-21T07:41:11.167Z,102245.79
2024-04-21T07:43:20.862Z,102249.15
2024-04-21T07:45:30.477Z,102253.67
2024-04-21T07:47:40.671Z,102255.96
2024-04-21T07:49:52.635Z,102258.70
2024-04-21T07:52:01.907Z,102259.20
2024-04-21T07:54:11.152Z,102258.54
2024-04-21T07:56:21.094Z,102263.20
2024-04-21T07:58:31.395Z,102262.48
2024-04-21T08:00:43.411Z,102260.53
2024-04-21T08:02:54.284Z,102260.89
2024-04-21T08:05:03.783Z,102265.64
2024-04-21T08:07:13.370Z,102266.27
2024-04-21T08:09:30.168Z,102269.48
2024-04-21T08:11:42.432Z,102267.95
2024-04-21T08:13:52.349Z,102268.05
2024-04-21T08:16:02.489Z,102270.67
2024-04-21T08:18:12.366Z,102275.61
2024-04-21T08:20:22.995Z,102268.20
2024-04-21T08:22:32.714Z,102275.56
2024-04-21T08:24:43.119Z,102284.67
2024-04-21T08:26:55.983Z,102280.70
2024-04-21T08:29:05.688Z,102285.91
2024-04-21T08:31:15.053Z,102287.73
2024-04-21T08:33:24.422Z,102288.86
2024-04-21T08:35:35.823Z,102293.02
2024-04-21T08:37:45.672Z,102291.42
2024-04-21T08:39:55.170Z,102300.45
2024-04-21T08:42:08.215Z,102299.20
2024-04-21T08:44:18.284Z,102302.50
2024-04-21T08:46:28.394Z,102301.26
2024-04-21T08:48:38.050Z,102299.31
2024-04-21T08:50:48.948Z,102298.38
2024-04-21T08:52:58.442Z,102299.64
2024-04-21T08:55:09.728Z,102299.19
2024-04-21T08:57:22.473Z,102296.02
2024-04-21T08:59:33.735Z,102297.58
2024-04-21T09:01:41.941Z,102302.55
2024-04-21T09:03:53.589Z,102304.00
2024-04-21T09:06:04.501Z,102302.41
2024-04-21T09:08:14.328Z,102306.90
2024-04-21T09:10:23.782Z,102308.80
2024-04-21T09:12:34.137Z,102308.62
2024-04-21T09:14:50.326Z,102309.35
2024-04-21T09:16:59.856Z,102304.83
2024-04-21T09:19:09.285Z,102307.23
2024-04-21T09:21:19.045Z,102307.68
2024-04-21T09:23:28.459Z,102309.77
2024-04-21T09:25:38.657Z,102313.96
2024-04-21T09:27:51.536Z,102316.78
2024-04-21T09:30:00.873Z,102317.37
2024-04-21T09:32:14.984Z,102319.48
2024-04-21T09:34:25.110Z,102320.52
2024-04-21T09:36:34.684Z,102323.61
2024-04-21T09:38:46.123Z,102326.66
2024-04-21T09:40:58.737Z,102326.11
2024-04-21T09:43:10.057Z,102326.91
2024-04-21T09:45:22.483Z,102327.13
2024-04-21T09:47:34.167Z,102329.48
2024-04-21T09:49:45.288Z,102331.42
2024-04-21T09:51:55.626Z,102330.45
2024-04-21T09:54:06.817Z,102334.33
2024-04-21T09:56:21.868Z,102335.77
2024-04-21T09:58:36.389Z,102340.80
2024-04-21T10:00:51.823Z,102340.30
2024-04-21T10:03:06.930Z,102339.61
2024-04-21T10:05:18.319Z,102338.48
2024-04-21T10:07:29.960Z,102337.41
2024-04-21T10:09:40.409Z,102340.43
2024-04-21T10:12:39.709Z,102340.13
2024-04-21T10:14:50.026Z,102345.59
2024-04-21T10:17:00.577Z,102347.04
2024-04-21T10:19:10.865Z,102347.40
2024-04-21T10:21:21.064Z,102346.81
2024-04-21T10:23:31.647Z,102351.68
2024-04-21T10:25:45.663Z,102353.70
2024-04-21T10:28:04.475Z,102363.00
2024-04-21T10:30:19.726Z,102363.34
2024-04-21T10:32:32.379Z,102366.47
2024-04-21T10:34:48.700Z,102368.14
2024-04-21T10:36:57.985Z,102368.80
2024-04-21T10:39:08.148Z,102373.61
2024-04-21T10:41:20.195Z,102372.06
2024-04-21T10:43:30.353Z,102379.16
2024-04-21T10:48:41.211Z,102388.34
2024-04-21T10:50:50.719Z,102392.10
2024-04-21T10:53:02.175Z,102396.56
2024-04-21T10:55:12.375Z,102400.25
2024-04-21T10:57:21.965Z,102403.55
2024-04-21T10:59:33.019Z,102406.05
2024-04-21T11:01:43.880Z,102408.02
2024-04-21T11:03:53.643Z,102406.35
2024-04-21T11:06:06.892Z,102407.72
2024-04-21T11:08:16.465Z,102411.28
2024-04-21T11:10:26.944Z,102415.96
2024-04-21T11:12:41.695Z,102419.03
2024-04-21T11:14:58.707Z,102416.94
2024-04-21T11:17:08.909Z,102421.14
2024-04-21T11:19:18.455Z,102416.66
2024-04-21T11:21:28.428Z,102420.05
2024-04-21T11:23:40.338Z,102423.84
2024-04-21T11:25:53.747Z,102425.05
2024-04-21T11:28:10.750Z,102427.64
2024-04-21T11:30:22.774Z,102429.80
2024-04-21T11:32:32.929Z,102430.71
2024-04-21T11:34:43.736Z,102426.29
2024-04-21T11:36:53.546Z,102428.34
2024-04-21T11:39:03.412Z,102426.67
2024-04-21T11:41:14.364Z,102435.67
2024-04-21T11:43:24.613Z,102435.00
2024-04-21T11:45:35.536Z,102434.75
2024-04-21T11:47:50.848Z,102431.16
2024-04-21T11:50:00.458Z,102432.42
2024-04-21T11:52:10.623Z,102435.30
2024-04-21T11:54:20.787Z,102436.66
2024-04-21T11:56:30.949Z,102434.85
2024-04-21T11:58:40.785Z,102438.85
2024-04-21T12:00:50.388Z,102435.47
2024-04-21T12:02:59.981Z,102437.89
2024-04-21T12:05:10.134Z,102434.61
2024-04-21T12:07:24.402Z,102436.14
2024-04-21T12:09:34.192Z,102437.79
2024-04-21T12:11:46.660Z,102439.27
2024-04-21T12:14:16.228Z,102441.53
2024-04-21T12:16:25.711Z,102442.41
2024-04-21T12:18:35.185Z,102439.80
2024-04-21T12:20:45.226Z,102441.55
2024-04-21T12:22:54.431Z,102445.77
2024-04-21T12:25:04.397Z,102446.61
2024-04-21T12:27:14.402Z,102447.97
2024-04-21T12:29:24.639Z,102444.59
2024-04-21T12:31:34.199Z,102439.35
2024-04-21T12:33:43.863Z,102442.59
2024-04-21T12:35:53.128Z,102441.02
2024-04-21T12:38:03.187Z,102438.51
2024-04-21T12:40:13.969Z,102440.52
2024-04-21T12:42:23.618Z,102439.82
2024-04-21T12:44:33.387Z,102445.48
2024-04-21T12:46:43.180Z,102447.42
2024-04-21T12:48:52.604Z,102448.98
2024-04-21T12:51:02.233Z,102449.56
2024-04-21T12:53:12.018Z,102451.40
2024-04-21T12:55:22.068Z,102458.16
2024-04-21T12:57:31.596Z,102458.95
2024-04-21T12:59:45.681Z,102461.02
2024-04-21T13:01:55.672Z,102466.00
2024-04-21T13:04:09.650Z,102467.73
2024-04-21T13:06:18.906Z,102472.41
2024-04-21T13:08:29.285Z,102477.56
2024-04-21T13:10:41.864Z,102478.44
2024-04-21T13:12:51.620Z,102479.98
2024-04-21T13:15:01.019Z,102485.59
2024-04-21T13:17:13.461Z,102487.41
2024-04-21T13:19:25.018Z,102489.86
2024-04-21T13:21:34.254Z,102492.14
2024-04-21T13:23:44.005Z,102493.23
2024-04-21T13:25:54.648Z,102498.52
2024-04-21T13:28:04.071Z,102501.63
2024-04-21T13:30:15.038Z,102498.48
2024-04-21T13:32:24.801Z,102499.83
2024-04-21T13:34:34.481Z,102498.09
2024-04-21T13:36:44.088Z,102502.71
2024-04-21T13:38:53.508Z,102502.92
2024-04-21T13:41:03.282Z,102503.09
2024-04-21T13:43:12.869Z,102511.08
2024-04-21T13:45:22.783Z,102506.58
2024-04-21T13:47:33.684Z,102510.63
2024-04-21T13:49:43.902Z,102511.17
2024-04-21T13:51:53.441Z,102511.95
2024-04-21T13:54:03.145Z,102517.19
2024-04-21T13:56:14.366Z,102523.55
2024-04-21T13:58:24.340Z,102521.61
2024-04-21T14:00:33.827Z,102521.93
2024-04-21T14:02:43.735Z,102526.77
2024-04-21T14:04:53.262Z,102532.59
2024-04-21T14:07:03.952Z,102531.39
2024-04-21T14:09:15.158Z,102527.66
2024-04-21T14:11:25.065Z,102522.84
2024-04-21T14:13:34.688Z,102527.83
2024-04-21T14:15:44.188Z,102529.19
2024-04-21T14:17:53.741Z,102529.73
2024-04-21T14:20:03.385Z,102534.81
2024-04-21T14:22:13.291Z,102535.98
2024-04-21T14:24:22.816Z,102538.73
2024-04-21T14:26:32.679Z,102539.00
2024-04-21T14:28:42.367Z,102540.58
2024-04-21T14:30:52.700Z,102540.00
2024-04-21T14:33:02.074Z,102546.98
2024-04-21T14:35:14.092Z,102541.86
2024-04-21T14:37:23.602Z,102535.60
2024-04-21T14:39:33.013Z,102542.97
2024-04-21T14:41:43.312Z,102540.99
2024-04-21T14:43:55.899Z,102545.16
2024-04-21T14:46:07.101Z,102540.34
2024-04-21T14:48:16.951Z,102546.59
2024-04-21T14:50:26.560Z,102548.19
2024-04-21T14:52:44.693Z,102550.24
2024-04-21T14:54:54.345Z,102552.77
2024-04-21T14:57:04.951Z,102556.56
2024-04-21T14:59:17.255Z,102560.14
2024-04-21T15:01:26.917Z,102562.67
2024-04-21T15:03:36.344Z,102562.42
2024-04-21T15:05:45.748Z,102564.88
2024-04-21T15:07:55.228Z,102565.26
2024-04-21T15:10:04.608Z,102563.10
2024-04-21T15:12:15.881Z,102570.02
2024-04-21T15:14:26.163Z,102565.91
2024-04-21T15:16:38.370Z,102570.09
2024-04-21T15:18:51.864Z,102568.34
2024-04-21T15:21:01.291Z,102574.48
2024-04-21T15:23:11.057Z,102578.04
2024-04-21T15:25:21.643Z,102581.16
2024-04-21T15:27:32.010Z,102578.96
2024-04-21T15:29:42.007Z,102578.88
2024-04-21T15:31:51.804Z,102581.24
2024-04-21T15:34:01.419Z,102579.11
2024-04-21T15:36:14.648Z,102576.77
2024-04-21T15:38:24.185Z,102579.12
2024-04-21T15:40:33.680Z,102580.66
2024-04-21T15:42:43.722Z,102578.15
2024-04-21T15:44:53.366Z,102580.63
2024-04-21T15:47:02.905Z,102582.75
2024-04-21T15:49:15.755Z,102584.60
2024-04-21T15:51:25.880Z,102583.27
2024-04-21T15:53:35.539Z,102579.37
2024-04-21T15:55:45.748Z,102579.13
2024-04-21T15:57:55.705Z,102579.27
2024-04-21T16:00:05.689Z,102577.71
2024-04-21T16:02:16.058Z,102573.23
2024-04-21T16:04:25.663Z,102574.29
2024-04-21T16:06:35.363Z,102572.37
2024-04-21T16:08:47.298Z,102575.05
2024-04-21T16:10:57.102Z,102578.23
2024-04-21T16:13:06.886Z,102575.13
2024-04-21T16:15:20.251Z,102575.16
2024-04-21T16:17:30.039Z,102576.75
2024-04-21T16:19:39.884Z,102573.34
2024-04-21T16:21:51.920Z,102576.92
2024-04-21T16:24:01.556Z,102578.04
2024-04-21T16:26:11.203Z,102578.41
2024-04-21T16:28:21.401Z,102577.39
2024-04-21T16:30:32.020Z,102580.63
2024-04-21T16:32:43.151Z,102585.40
2024-04-21T16:34:53.957Z,102585.46
2024-04-21T16:37:04.906Z,102586.80
2024-04-21T16:39:15.775Z,102584.49
2024-04-21T16:41:26.764Z,102583.65
2024-04-21T16:43:39.855Z,102586.26
2024-04-21T16:45:54.413Z,102588.69
2024-04-21T16:48:08.926Z,102585.88
2024-04-21T16:50:20.319Z,102585.13
2024-04-21T16:52:31.172Z,102581.44
2024-04-21T16:54:41.877Z,102585.58
2024-04-21T16:56:54.145Z,102583.39
2024-04-21T16:59:09.640Z,102581.86
2024-04-21T17:01:20.274Z,102580.47
2024-04-21T17:03:31.043Z,102585.64
2024-04-21T17:05:42.543Z,102585.73
2024-04-21T17:08:03.333Z,102582.05
2024-04-21T17:10:15.789Z,102580.50
2024-04-21T17:12:27.948Z,102574.70
2024-04-21T17:14:37.400Z,102576.27
2024-04-21T17:16:47.355Z,102577.02
2024-04-21T17:18:56.856Z,102580.74
2024-04-21T17:21:06.628Z,102581.52
2024-04-21T17:23:16.081Z,102587.05
2024-04-21T17:25:25.678Z,102588.27
2024-04-21T17:27:35.353Z,102590.48
2024-04-21T17:29:46.223Z,102589.63
2024-04-21T17:31:56.954Z,102593.66
2024-04-21T17:34:06.498Z,102589.27
2024-04-21T17:36:15.930Z,102587.96
2024-04-21T17:38:25.761Z,102588.47
2024-04-21T17:40:35.191Z,102585.02
2024-04-21T17:42:45.069Z,102583.07
2024-04-21T17:44:54.595Z,102580.57
2024-04-21T17:47:04.340Z,102584.02
2024-04-21T17:49:14.272Z,102582.30
2024-04-21T17:51:23.868Z,102580.31
2024-04-21T17:53:33.488Z,102579.17
2024-04-21T17:55:44.506Z,102577.62
2024-04-21T17:57:54.102Z,102577.11
2024-04-21T18:00:04.028Z,102579.98
2024-04-21T18:02:13.480Z,102580.00
2024-04-21T18:04:23.587Z,102574.45
2024-04-21T18:06:33.204Z,102576.94
2024-04-21T18:08:43.004Z,102577.20
2024-04-21T18:10:59.654Z,102573.34
2024-04-21T18:13:09.279Z,102573.45
2024-04-21T18:15:19.163Z,102573.88
2024-04-21T18:17:29.016Z,102573.08
2024-04-21T18:19:38.967Z,102571.17
2024-04-21T18:21:52.923Z,102563.54
2024-04-21T18:24:02.498Z,102565.44
2024-04-21T18:26:11.986Z,102566.27
2024-04-21T18:28:21.709Z,102563.79
2024-04-21T18:30:37.893Z,102565.15
2024-04-21T18:32:47.858Z,102562.39
2024-04-21T18:34:58.669Z,102559.64
2024-04-21T18:37:08.733Z,102557.17
2024-04-21T18:39:18.760Z,102557.63
2024-04-21T18:41:28.367Z,102558.88
2024-04-21T18:43:38.098Z,102550.11
2024-04-21T18:45:48.187Z,102550.62
2024-04-21T18:47:57.842Z,102550.94
2024-04-21T18:50:09.829Z,102542.46
2024-04-21T18:52:19.884Z,102542.92
2024-04-21T18:54:29.486Z,102538.68
2024-04-21T18:56:39.315Z,102535.19
2024-04-21T18:58:49.193Z,102536.23
2024-04-21T19:01:05.708Z,102528.54
2024-04-21T19:03:15.068Z,102534.34
2024-04-21T19:05:25.003Z,102529.48
2024-04-21T19:07:34.542Z,102526.45
2024-04-21T19:09:44.959Z,102524.47
2024-04-21T19:11:55.835Z,102517.87
2024-04-21T19:14:06.575Z,102520.52
2024-04-21T19:16:17.512Z,102515.57
2024-04-21T19:18:28.613Z,102512.27
2024-04-21T19:20:39.818Z,102510.56
2024-04-21T19:22:50.998Z,102505.81
2024-04-21T19:25:00.356Z,102505.21
2024-04-21T19:27:10.565Z,102505.83
2024-04-21T19:29:20.737Z,102505.09
2024-04-21T19:31:31.449Z,102498.45
2024-04-21T19:33:40.746Z,102496.82
2024-04-21T19:35:50.883Z,102494.28
2024-04-21T19:38:01.528Z,102488.30
2024-04-21T19:40:12.418Z,102488.29
2024-04-21T19:42:22.062Z,102486.02
2024-04-21T19:44:31.607Z,102485.02
2024-04-21T19:46:41.360Z,102483.80
2024-04-21T19:48:51.886Z,102481.17
2024-04-21T19:51:04.947Z,102477.19
2024-04-21T19:53:14.544Z,102468.92
2024-04-21T19:55:24.440Z,102465.67
2024-04-21T19:57:34.218Z,102466.04
2024-04-21T19:59:45.750Z,102467.99
2024-04-21T20:01:55.926Z,102469.06
2024-04-21T20:04:05.735Z,102463.91
2024-04-21T20:06:18.551Z,102459.98
2024-04-21T20:08:27.925Z,102465.61
2024-04-21T20:10:38.120Z,102459.80
2024-04-21T20:12:49.602Z,102456.09
2024-04-21T20:15:16.171Z,102453.98
2024-04-21T20:17:43.061Z,102447.30
2024-04-21T20:19:52.944Z,102450.98
2024-04-21T20:22:02.318Z,102450.30
2024-04-21T20:24:13.052Z,102445.47
2024-04-21T20:26:23.148Z,102441.11
2024-04-21T20:28:33.509Z,102435.86
2024-04-21T20:30:43.261Z,102439.33
2024-04-21T20:32:53.231Z,102440.05
2024-04-21T20:35:05.150Z,102439.66
2024-04-21T20:37:15.249Z,102434.64
2024-04-21T20:39:25.632Z,102427.63
2024-04-21T20:41:38.360Z,102422.45
2024-04-21T20:43:48.504Z,102425.43
2024-04-21T20:45:58.118Z,102421.41
2024-04-21T20:48:08.538Z,102424.11
2024-04-21T20:50:18.283Z,102424.25
2024-04-21T20:52:28.135Z,102423.40
2024-04-21T20:54:37.787Z,102417.34
2024-04-21T20:56:47.455Z,102417.73
2024-04-21T20:58:58.455Z,102417.85
2024-04-21T21:01:08.443Z,102415.04
2024-04-21T21:03:19.801Z,102410.81
2024-04-21T21:05:30.744Z,102404.76
2024-04-21T21:07:40.333Z,102406.64
2024-04-21T21:09:52.697Z,102405.63
2024-04-21T21:12:02.291Z,102406.84
2024-04-21T21:14:11.969Z,102406.02
2024-04-21T21:16:22.207Z,102402.79
2024-04-21T21:18:31.863Z,102397.23
2024-04-21T21:20:41.483Z,102400.07
2024-04-21T21:22:53.949Z,102402.45
2024-04-21T21:25:04.049Z,102399.80
2024-04-21T21:27:13.688Z,102399.80
2024-04-21T21:29:23.411Z,102395.69
2024-04-21T21:31:33.385Z,102391.98
2024-04-21T21:33:43.086Z,102389.73
2024-04-21T21:36:01.529Z,102386.09
2024-04-21T21:38:11.011Z,102388.79
2024-04-21T21:40:21.893Z,102385.56
2024-04-21T21:42:31.361Z,102382.42
2024-04-21T21:44:41.024Z,102380.20
2024-04-21T21:46:50.969Z,102379.55
2024-04-21T21:49:00.519Z,102378.22
2024-04-21T21:51:10.439Z,102375.28
2024-04-21T21:53:20.958Z,102379.84
2024-04-21T21:55:30.425Z,102371.50
2024-04-21T21:57:42.424Z,102373.09
2024-04-21T21:59:52.280Z,102366.84
2024-04-21T22:02:03.818Z,102363.23
2024-04-21T22:04:13.961Z,102363.27
2024-04-21T22:06:23.819Z,102358.48
2024-04-21T22:08:33.507Z,102356.60
2024-04-21T22:10:43.769Z,102355.56
2024-04-21T22:12:55.269Z,102352.36
2024-04-21T22:15:06.617Z,102351.89
2024-04-21T22:17:16.086Z,102346.66
2024-04-21T22:19:26.357Z,102349.29
2024-04-21T22:21:35.937Z,102343.92
2024-04-21T22:23:45.460Z,102341.23
2024-04-21T22:25:55.524Z,102334.77
2024-04-21T22:28:05.326Z,102336.01
2024-04-21T22:30:15.745Z,102337.05
2024-04-21T22:32:25.871Z,102335.77
2024-04-21T22:34:35.742Z,102330.17
2024-04-21T22:36:45.199Z,102327.70
2024-04-21T22:38:55.017Z,102324.36
2024-04-21T22:41:05.699Z,102322.04
2024-04-21T22:43:15.334Z,102318.83
2024-04-21T22:45:24.846Z,102317.73
2024-04-21T22:47:35.248Z,102316.13
2024-04-21T22:49:45.093Z,102307.02
2024-04-21T22:51:54.484Z,102301.64
2024-04-21T22:54:04.267Z,102293.29
2024-04-21T22:56:22.670Z,102293.79
2024-04-21T22:58:36.849Z,102294.40
2024-04-21T23:00:46.786Z,102290.17
2024-04-21T23:02:56.572Z,102288.21
2024-04-21T23:05:07.236Z,102281.85
2024-04-21T23:07:16.733Z,102280.89
2024-04-21T23:09:27.258Z,102277.36
2024-04-21T23:11:38.083Z,102272.06
2024-04-21T23:13:48.136Z,102274.55
2024-04-21T23:15:57.566Z,102268.95
2024-04-21T23:18:07.818Z,102268.83
2024-04-21T23:20:19.084Z,102262.60
2024-04-21T23:22:29.458Z,102260.10
2024-04-21T23:24:38.895Z,102257.40
2024-04-21T23:26:48.447Z,102256.17
2024-04-21T23:28:58.204Z,102254.29
2024-04-21T23:31:07.684Z,102251.00
2024-04-21T23:33:17.202Z,102243.40
2024-04-21T23:35:27.973Z,102244.42
2024-04-21T23:37:37.930Z,102239.46
2024-04-21T23:39:48.013Z,102236.34
2024-04-21T23:41:58.085Z,102229.08
2024-04-21T23:44:07.572Z,102229.99
2024-04-21T23:46:17.387Z,102225.15
2024-04-21T23:48:26.941Z,102227.17
2024-04-21T23:50:37.528Z,102222.20
2024-04-21T23:52:47.373Z,102219.24
2024-04-21T23:54:59.318Z,102220.14
2024-04-21T23:57:08.940Z,102221.66
2024-04-21T23:59:18.700Z,102218.52
